sensor_id;sensor_type;location;lat;lon;timestamp;P1;durP1;ratioP1;P2;durP2;ratioP2
37091;SDS011;23005;51.998;4.502;2023-02-15T00:00:49;116.30;;;64.28;;
37091;SDS011;23005;51.998;4.502;2023-02-15T00:02:10;124.03;;;66.78;;
37091;SDS011;23005;51.998;4.502;2023-02-15T00:03:31;119.03;;;65.15;;
37091;SDS011;23005;51.998;4.502;2023-02-15T00:04:51;121.53;;;64.97;;
37091;SDS011;23005;51.998;4.502;2023-02-15T00:06:12;121.25;;;64.20;;
37091;SDS011;23005;51.998;4.502;2023-02-15T00:07:33;116.28;;;62.08;;
37091;SDS011;23005;51.998;4.502;2023-02-15T00:08:54;110.97;;;62.08;;
37091;SDS011;23005;51.998;4.502;2023-02-15T00:10:15;114.78;;;61.85;;
37091;SDS011;23005;51.998;4.502;2023-02-15T00:11:36;110.60;;;59.65;;
37091;SDS011;23005;51.998;4.502;2023-02-15T00:12:59;109.80;;;58.70;;
37091;SDS011;23005;51.998;4.502;2023-02-15T00:14:20;106.30;;;58.67;;
37091;SDS011;23005;51.998;4.502;2023-02-15T00:15:42;110.95;;;62.05;;
37091;SDS011;23005;51.998;4.502;2023-02-15T00:17:03;106.55;;;58.67;;
37091;SDS011;23005;51.998;4.502;2023-02-15T00:18:24;108.93;;;60.10;;
37091;SDS011;23005;51.998;4.502;2023-02-15T00:19:44;114.93;;;62.53;;
37091;SDS011;23005;51.998;4.502;2023-02-15T00:21:06;132.25;;;70.25;;
37091;SDS011;23005;51.998;4.502;2023-02-15T00:22:29;124.95;;;66.47;;
37091;SDS011;23005;51.998;4.502;2023-02-15T00:23:50;121.28;;;67.65;;
37091;SDS011;23005;51.998;4.502;2023-02-15T00:25:11;128.75;;;66.50;;
37091;SDS011;23005;51.998;4.502;2023-02-15T00:26:32;110.30;;;61.15;;
37091;SDS011;23005;51.998;4.502;2023-02-15T00:29:15;116.75;;;60.20;;
37091;SDS011;23005;51.998;4.502;2023-02-15T00:30:40;108.78;;;59.85;;
37091;SDS011;23005;51.998;4.502;2023-02-15T00:32:01;106.65;;;59.15;;
37091;SDS011;23005;51.998;4.502;2023-02-15T00:33:23;128.27;;;66.17;;
37091;SDS011;23005;51.998;4.502;2023-02-15T00:34:44;114.57;;;62.42;;
37091;SDS011;23005;51.998;4.502;2023-02-15T00:36:05;118.20;;;63.55;;
37091;SDS011;23005;51.998;4.502;2023-02-15T00:37:26;107.47;;;57.90;;
37091;SDS011;23005;51.998;4.502;2023-02-15T00:38:47;112.43;;;60.22;;
37091;SDS011;23005;51.998;4.502;2023-02-15T00:40:08;113.72;;;60.03;;
37091;SDS011;23005;51.998;4.502;2023-02-15T00:41:30;109.85;;;59.60;;
37091;SDS011;23005;51.998;4.502;2023-02-15T00:42:50;104.65;;;59.05;;
37091;SDS011;23005;51.998;4.502;2023-02-15T00:44:11;110.18;;;58.08;;
37091;SDS011;23005;51.998;4.502;2023-02-15T00:45:33;104.68;;;59.25;;
37091;SDS011;23005;51.998;4.502;2023-02-15T00:46:54;112.43;;;62.33;;
37091;SDS011;23005;51.998;4.502;2023-02-15T00:48:15;108.47;;;59.70;;
37091;SDS011;23005;51.998;4.502;2023-02-15T00:49:35;126.20;;;66.30;;
37091;SDS011;23005;51.998;4.502;2023-02-15T00:50:57;119.53;;;62.80;;
37091;SDS011;23005;51.998;4.502;2023-02-15T00:52:18;119.90;;;65.20;;
37091;SDS011;23005;51.998;4.502;2023-02-15T00:53:39;123.85;;;66.25;;
37091;SDS011;23005;51.998;4.502;2023-02-15T00:54:59;112.57;;;61.50;;
37091;SDS011;23005;51.998;4.502;2023-02-15T00:56:20;113.50;;;61.28;;
37091;SDS011;23005;51.998;4.502;2023-02-15T00:57:41;115.35;;;61.97;;
37091;SDS011;23005;51.998;4.502;2023-02-15T00:59:02;120.33;;;63.43;;
37091;SDS011;23005;51.998;4.502;2023-02-15T01:00:22;101.70;;;58.53;;
37091;SDS011;23005;51.998;4.502;2023-02-15T01:01:45;117.60;;;64.68;;
37091;SDS011;23005;51.998;4.502;2023-02-15T01:03:06;122.10;;;65.22;;
37091;SDS011;23005;51.998;4.502;2023-02-15T01:04:26;117.03;;;62.60;;
37091;SDS011;23005;51.998;4.502;2023-02-15T01:05:48;114.87;;;60.60;;
37091;SDS011;23005;51.998;4.502;2023-02-15T01:07:09;106.03;;;59.58;;
37091;SDS011;23005;51.998;4.502;2023-02-15T01:08:30;111.07;;;59.38;;
37091;SDS011;23005;51.998;4.502;2023-02-15T01:09:51;102.20;;;56.72;;
37091;SDS011;23005;51.998;4.502;2023-02-15T01:11:13;108.55;;;60.05;;
37091;SDS011;23005;51.998;4.502;2023-02-15T01:12:34;99.43;;;56.85;;
37091;SDS011;23005;51.998;4.502;2023-02-15T01:13:56;98.78;;;55.10;;
37091;SDS011;23005;51.998;4.502;2023-02-15T01:15:18;101.03;;;56.78;;
37091;SDS011;23005;51.998;4.502;2023-02-15T01:16:39;109.38;;;57.72;;
37091;SDS011;23005;51.998;4.502;2023-02-15T01:18:01;97.65;;;55.00;;
37091;SDS011;23005;51.998;4.502;2023-02-15T01:19:22;95.22;;;54.95;;
37091;SDS011;23005;51.998;4.502;2023-02-15T01:20:43;95.93;;;53.85;;
37091;SDS011;23005;51.998;4.502;2023-02-15T01:22:03;94.93;;;54.05;;
37091;SDS011;23005;51.998;4.502;2023-02-15T01:23:24;108.15;;;57.72;;
37091;SDS011;23005;51.998;4.502;2023-02-15T01:24:45;99.10;;;54.78;;
37091;SDS011;23005;51.998;4.502;2023-02-15T01:26:08;101.00;;;55.47;;
37091;SDS011;23005;51.998;4.502;2023-02-15T01:27:29;93.03;;;53.67;;
37091;SDS011;23005;51.998;4.502;2023-02-15T01:28:50;103.70;;;55.90;;
37091;SDS011;23005;51.998;4.502;2023-02-15T01:30:11;89.88;;;51.92;;
37091;SDS011;23005;51.998;4.502;2023-02-15T01:31:33;86.15;;;51.92;;
37091;SDS011;23005;51.998;4.502;2023-02-15T01:32:54;94.60;;;53.83;;
37091;SDS011;23005;51.998;4.502;2023-02-15T01:34:17;98.00;;;54.55;;
37091;SDS011;23005;51.998;4.502;2023-02-15T01:35:37;97.13;;;54.05;;
37091;SDS011;23005;51.998;4.502;2023-02-15T01:36:58;102.97;;;56.13;;
37091;SDS011;23005;51.998;4.502;2023-02-15T01:38:19;99.90;;;53.33;;
37091;SDS011;23005;51.998;4.502;2023-02-15T01:39:39;102.70;;;54.85;;
37091;SDS011;23005;51.998;4.502;2023-02-15T01:41:00;113.93;;;60.65;;
37091;SDS011;23005;51.998;4.502;2023-02-15T01:42:21;101.55;;;58.50;;
37091;SDS011;23005;51.998;4.502;2023-02-15T01:43:45;105.75;;;57.75;;
37091;SDS011;23005;51.998;4.502;2023-02-15T01:45:14;123.00;;;64.63;;
37091;SDS011;23005;51.998;4.502;2023-02-15T01:46:39;125.35;;;67.00;;
37091;SDS011;23005;51.998;4.502;2023-02-15T01:48:15;124.22;;;65.35;;
37091;SDS011;23005;51.998;4.502;2023-02-15T01:49:40;105.05;;;56.35;;
37091;SDS011;23005;51.998;4.502;2023-02-15T01:51:02;120.90;;;65.10;;
37091;SDS011;23005;51.998;4.502;2023-02-15T01:52:23;118.82;;;62.92;;
37091;SDS011;23005;51.998;4.502;2023-02-15T01:53:46;111.28;;;59.97;;
37091;SDS011;23005;51.998;4.502;2023-02-15T01:55:14;117.85;;;60.53;;
37091;SDS011;23005;51.998;4.502;2023-02-15T01:56:36;113.43;;;59.90;;
37091;SDS011;23005;51.998;4.502;2023-02-15T01:57:58;118.53;;;63.10;;
37091;SDS011;23005;51.998;4.502;2023-02-15T01:59:20;116.13;;;63.35;;
37091;SDS011;23005;51.998;4.502;2023-02-15T02:00:42;122.45;;;66.65;;
37091;SDS011;23005;51.998;4.502;2023-02-15T02:02:03;121.30;;;63.80;;
37091;SDS011;23005;51.998;4.502;2023-02-15T02:03:29;109.60;;;58.72;;
37091;SDS011;23005;51.998;4.502;2023-02-15T02:04:58;110.38;;;58.72;;
37091;SDS011;23005;51.998;4.502;2023-02-15T02:06:20;109.05;;;57.13;;
37091;SDS011;23005;51.998;4.502;2023-02-15T02:07:42;111.35;;;60.85;;
37091;SDS011;23005;51.998;4.502;2023-02-15T02:09:04;109.15;;;58.17;;
37091;SDS011;23005;51.998;4.502;2023-02-15T02:10:26;119.78;;;62.25;;
37091;SDS011;23005;51.998;4.502;2023-02-15T02:11:48;117.57;;;62.13;;
37091;SDS011;23005;51.998;4.502;2023-02-15T02:13:09;108.72;;;58.95;;
37091;SDS011;23005;51.998;4.502;2023-02-15T02:14:29;106.87;;;57.07;;
37091;SDS011;23005;51.998;4.502;2023-02-15T02:15:52;93.72;;;53.80;;
37091;SDS011;23005;51.998;4.502;2023-02-15T02:17:16;102.80;;;55.10;;
37091;SDS011;23005;51.998;4.502;2023-02-15T02:18:41;98.13;;;54.70;;
37091;SDS011;23005;51.998;4.502;2023-02-15T02:23:54;95.22;;;52.10;;
37091;SDS011;23005;51.998;4.502;2023-02-15T02:27:18;92.93;;;51.80;;
37091;SDS011;23005;51.998;4.502;2023-02-15T02:28:50;95.53;;;50.72;;
37091;SDS011;23005;51.998;4.502;2023-02-15T02:33:44;84.93;;;47.65;;
37091;SDS011;23005;51.998;4.502;2023-02-15T02:35:15;93.07;;;50.58;;
37091;SDS011;23005;51.998;4.502;2023-02-15T02:36:41;89.00;;;49.70;;
37091;SDS011;23005;51.998;4.502;2023-02-15T02:38:08;87.15;;;50.15;;
37091;SDS011;23005;51.998;4.502;2023-02-15T02:39:33;88.93;;;50.00;;
37091;SDS011;23005;51.998;4.502;2023-02-15T02:41:02;87.82;;;50.63;;
37091;SDS011;23005;51.998;4.502;2023-02-15T02:42:29;91.07;;;50.42;;
37091;SDS011;23005;51.998;4.502;2023-02-15T02:43:54;93.32;;;52.38;;
37091;SDS011;23005;51.998;4.502;2023-02-15T02:45:26;93.65;;;53.03;;
37091;SDS011;23005;51.998;4.502;2023-02-15T02:46:50;88.10;;;50.95;;
37091;SDS011;23005;51.998;4.502;2023-02-15T02:48:15;92.78;;;52.78;;
37091;SDS011;23005;51.998;4.502;2023-02-15T02:49:39;93.47;;;52.15;;
37091;SDS011;23005;51.998;4.502;2023-02-15T02:51:01;93.70;;;51.63;;
37091;SDS011;23005;51.998;4.502;2023-02-15T02:52:36;100.55;;;54.70;;
37091;SDS011;23005;51.998;4.502;2023-02-15T02:53:59;89.38;;;50.45;;
37091;SDS011;23005;51.998;4.502;2023-02-15T02:55:21;90.38;;;51.45;;
37091;SDS011;23005;51.998;4.502;2023-02-15T02:56:44;96.00;;;52.10;;
37091;SDS011;23005;51.998;4.502;2023-02-15T02:58:09;88.18;;;50.17;;
37091;SDS011;23005;51.998;4.502;2023-02-15T02:59:32;89.22;;;49.17;;
37091;SDS011;23005;51.998;4.502;2023-02-15T03:00:54;88.47;;;50.05;;
37091;SDS011;23005;51.998;4.502;2023-02-15T03:02:18;84.30;;;48.50;;
37091;SDS011;23005;51.998;4.502;2023-02-15T03:03:42;85.82;;;48.70;;
37091;SDS011;23005;51.998;4.502;2023-02-15T03:05:06;93.28;;;52.17;;
37091;SDS011;23005;51.998;4.502;2023-02-15T03:06:32;85.90;;;50.00;;
37091;SDS011;23005;51.998;4.502;2023-02-15T03:07:56;94.20;;;52.75;;
37091;SDS011;23005;51.998;4.502;2023-02-15T03:09:18;90.35;;;51.47;;
37091;SDS011;23005;51.998;4.502;2023-02-15T03:10:42;94.43;;;51.85;;
37091;SDS011;23005;51.998;4.502;2023-02-15T03:12:04;88.88;;;50.47;;
37091;SDS011;23005;51.998;4.502;2023-02-15T03:13:25;86.60;;;49.80;;
37091;SDS011;23005;51.998;4.502;2023-02-15T03:14:46;92.95;;;50.72;;
37091;SDS011;23005;51.998;4.502;2023-02-15T03:16:09;91.75;;;51.00;;
37091;SDS011;23005;51.998;4.502;2023-02-15T03:18:52;101.60;;;55.47;;
37091;SDS011;23005;51.998;4.502;2023-02-15T03:20:18;89.55;;;50.25;;
37091;SDS011;23005;51.998;4.502;2023-02-15T03:21:42;103.50;;;55.22;;
37091;SDS011;23005;51.998;4.502;2023-02-15T03:23:06;100.25;;;53.47;;
37091;SDS011;23005;51.998;4.502;2023-02-15T03:24:31;87.40;;;48.17;;
37091;SDS011;23005;51.998;4.502;2023-02-15T03:25:56;98.20;;;54.72;;
37091;SDS011;23005;51.998;4.502;2023-02-15T03:27:19;96.28;;;52.67;;
37091;SDS011;23005;51.998;4.502;2023-02-15T03:28:43;90.03;;;49.70;;
37091;SDS011;23005;51.998;4.502;2023-02-15T03:30:06;86.93;;;49.20;;
37091;SDS011;23005;51.998;4.502;2023-02-15T03:31:28;86.80;;;49.08;;
37091;SDS011;23005;51.998;4.502;2023-02-15T03:32:51;90.82;;;50.17;;
37091;SDS011;23005;51.998;4.502;2023-02-15T03:34:13;90.28;;;49.80;;
37091;SDS011;23005;51.998;4.502;2023-02-15T03:35:39;96.07;;;53.85;;
37091;SDS011;23005;51.998;4.502;2023-02-15T03:37:05;92.70;;;50.88;;
37091;SDS011;23005;51.998;4.502;2023-02-15T03:38:32;101.25;;;54.95;;
37091;SDS011;23005;51.998;4.502;2023-02-15T03:39:56;92.55;;;51.55;;
37091;SDS011;23005;51.998;4.502;2023-02-15T03:41:19;106.30;;;57.22;;
37091;SDS011;23005;51.998;4.502;2023-02-15T03:44:03;89.88;;;48.78;;
37091;SDS011;23005;51.998;4.502;2023-02-15T03:45:27;80.40;;;47.15;;
37091;SDS011;23005;51.998;4.502;2023-02-15T03:46:51;90.65;;;48.65;;
37091;SDS011;23005;51.998;4.502;2023-02-15T03:48:16;90.18;;;49.67;;
37091;SDS011;23005;51.998;4.502;2023-02-15T03:49:38;98.03;;;51.08;;
37091;SDS011;23005;51.998;4.502;2023-02-15T03:51:03;86.13;;;48.78;;
37091;SDS011;23005;51.998;4.502;2023-02-15T03:52:26;88.07;;;47.38;;
37091;SDS011;23005;51.998;4.502;2023-02-15T03:53:48;88.88;;;48.95;;
37091;SDS011;23005;51.998;4.502;2023-02-15T03:55:09;82.80;;;48.47;;
37091;SDS011;23005;51.998;4.502;2023-02-15T03:56:30;91.15;;;49.35;;
37091;SDS011;23005;51.998;4.502;2023-02-15T03:57:51;95.18;;;51.15;;
37091;SDS011;23005;51.998;4.502;2023-02-15T03:59:12;95.30;;;50.60;;
37091;SDS011;23005;51.998;4.502;2023-02-15T04:00:33;92.88;;;53.92;;
37091;SDS011;23005;51.998;4.502;2023-02-15T04:02:00;81.78;;;47.92;;
37091;SDS011;23005;51.998;4.502;2023-02-15T04:03:26;90.78;;;49.55;;
37091;SDS011;23005;51.998;4.502;2023-02-15T04:04:53;92.40;;;49.47;;
37091;SDS011;23005;51.998;4.502;2023-02-15T04:06:15;89.72;;;49.50;;
37091;SDS011;23005;51.998;4.502;2023-02-15T04:07:36;86.28;;;49.33;;
37091;SDS011;23005;51.998;4.502;2023-02-15T04:08:57;89.25;;;50.35;;
37091;SDS011;23005;51.998;4.502;2023-02-15T04:10:18;94.97;;;51.63;;
37091;SDS011;23005;51.998;4.502;2023-02-15T04:11:38;86.10;;;48.67;;
37091;SDS011;23005;51.998;4.502;2023-02-15T04:12:59;85.97;;;47.17;;
37091;SDS011;23005;51.998;4.502;2023-02-15T04:14:19;86.20;;;48.73;;
37091;SDS011;23005;51.998;4.502;2023-02-15T04:15:40;81.70;;;45.15;;
37091;SDS011;23005;51.998;4.502;2023-02-15T04:17:02;85.88;;;47.00;;
37091;SDS011;23005;51.998;4.502;2023-02-15T04:18:25;85.95;;;46.65;;
37091;SDS011;23005;51.998;4.502;2023-02-15T04:19:46;89.00;;;47.92;;
37091;SDS011;23005;51.998;4.502;2023-02-15T04:21:06;90.53;;;49.78;;
37091;SDS011;23005;51.998;4.502;2023-02-15T04:22:28;84.43;;;47.75;;
37091;SDS011;23005;51.998;4.502;2023-02-15T04:23:49;95.18;;;50.45;;
37091;SDS011;23005;51.998;4.502;2023-02-15T04:25:10;83.70;;;47.28;;
37091;SDS011;23005;51.998;4.502;2023-02-15T04:26:31;85.93;;;47.92;;
37091;SDS011;23005;51.998;4.502;2023-02-15T04:27:52;85.85;;;48.45;;
37091;SDS011;23005;51.998;4.502;2023-02-15T04:29:14;90.18;;;49.65;;
37091;SDS011;23005;51.998;4.502;2023-02-15T04:30:34;92.57;;;48.60;;
37091;SDS011;23005;51.998;4.502;2023-02-15T04:31:56;92.13;;;48.55;;
37091;SDS011;23005;51.998;4.502;2023-02-15T04:33:18;91.95;;;50.22;;
37091;SDS011;23005;51.998;4.502;2023-02-15T04:34:38;83.63;;;47.67;;
37091;SDS011;23005;51.998;4.502;2023-02-15T04:35:59;95.65;;;51.67;;
37091;SDS011;23005;51.998;4.502;2023-02-15T04:37:20;87.38;;;47.90;;
37091;SDS011;23005;51.998;4.502;2023-02-15T04:38:43;91.20;;;50.03;;
37091;SDS011;23005;51.998;4.502;2023-02-15T04:40:04;89.78;;;48.95;;
37091;SDS011;23005;51.998;4.502;2023-02-15T04:41:27;93.80;;;52.00;;
37091;SDS011;23005;51.998;4.502;2023-02-15T04:42:47;103.03;;;54.20;;
37091;SDS011;23005;51.998;4.502;2023-02-15T04:44:09;105.60;;;55.17;;
37091;SDS011;23005;51.998;4.502;2023-02-15T04:45:30;94.03;;;50.58;;
37091;SDS011;23005;51.998;4.502;2023-02-15T04:46:50;99.38;;;51.53;;
37091;SDS011;23005;51.998;4.502;2023-02-15T04:48:11;96.43;;;51.15;;
37091;SDS011;23005;51.998;4.502;2023-02-15T04:49:32;88.15;;;48.63;;
37091;SDS011;23005;51.998;4.502;2023-02-15T04:50:52;92.75;;;49.28;;
37091;SDS011;23005;51.998;4.502;2023-02-15T04:52:13;89.70;;;49.30;;
37091;SDS011;23005;51.998;4.502;2023-02-15T04:53:34;88.50;;;46.85;;
37091;SDS011;23005;51.998;4.502;2023-02-15T04:54:56;83.45;;;46.90;;
37091;SDS011;23005;51.998;4.502;2023-02-15T04:56:16;89.88;;;48.13;;
37091;SDS011;23005;51.998;4.502;2023-02-15T04:57:36;92.45;;;49.40;;
37091;SDS011;23005;51.998;4.502;2023-02-15T04:58:57;83.70;;;46.72;;
37091;SDS011;23005;51.998;4.502;2023-02-15T05:00:18;92.32;;;47.63;;
37091;SDS011;23005;51.998;4.502;2023-02-15T05:01:39;80.45;;;43.83;;
37091;SDS011;23005;51.998;4.502;2023-02-15T05:02:59;90.22;;;48.90;;
37091;SDS011;23005;51.998;4.502;2023-02-15T05:04:20;82.00;;;46.67;;
37091;SDS011;23005;51.998;4.502;2023-02-15T05:05:41;90.95;;;47.50;;
37091;SDS011;23005;51.998;4.502;2023-02-15T05:07:02;81.80;;;46.60;;
37091;SDS011;23005;51.998;4.502;2023-02-15T05:08:23;78.95;;;44.22;;
37091;SDS011;23005;51.998;4.502;2023-02-15T05:09:44;88.80;;;48.40;;
37091;SDS011;23005;51.998;4.502;2023-02-15T05:11:06;89.28;;;47.13;;
37091;SDS011;23005;51.998;4.502;2023-02-15T05:12:26;84.60;;;46.67;;
37091;SDS011;23005;51.998;4.502;2023-02-15T05:13:47;86.95;;;45.17;;
37091;SDS011;23005;51.998;4.502;2023-02-15T05:15:08;108.47;;;53.35;;
37091;SDS011;23005;51.998;4.502;2023-02-15T05:16:29;88.25;;;45.63;;
37091;SDS011;23005;51.998;4.502;2023-02-15T05:17:50;86.57;;;46.70;;
37091;SDS011;23005;51.998;4.502;2023-02-15T05:19:10;89.63;;;47.17;;
37091;SDS011;23005;51.998;4.502;2023-02-15T05:20:31;86.65;;;45.60;;
37091;SDS011;23005;51.998;4.502;2023-02-15T05:21:53;78.53;;;43.25;;
37091;SDS011;23005;51.998;4.502;2023-02-15T05:23:13;84.05;;;43.78;;
37091;SDS011;23005;51.998;4.502;2023-02-15T05:24:34;81.43;;;43.90;;
37091;SDS011;23005;51.998;4.502;2023-02-15T05:25:55;73.80;;;41.78;;
37091;SDS011;23005;51.998;4.502;2023-02-15T05:27:17;82.60;;;46.40;;
37091;SDS011;23005;51.998;4.502;2023-02-15T05:28:38;80.70;;;45.10;;
37091;SDS011;23005;51.998;4.502;2023-02-15T05:29:58;86.20;;;46.28;;
37091;SDS011;23005;51.998;4.502;2023-02-15T05:31:19;77.40;;;42.60;;
37091;SDS011;23005;51.998;4.502;2023-02-15T05:32:40;85.55;;;47.20;;
37091;SDS011;23005;51.998;4.502;2023-02-15T05:34:01;83.45;;;46.20;;
37091;SDS011;23005;51.998;4.502;2023-02-15T05:35:21;83.22;;;45.53;;
37091;SDS011;23005;51.998;4.502;2023-02-15T05:36:42;93.70;;;49.10;;
37091;SDS011;23005;51.998;4.502;2023-02-15T05:38:03;87.68;;;47.78;;
37091;SDS011;23005;51.998;4.502;2023-02-15T05:39:24;89.25;;;46.72;;
37091;SDS011;23005;51.998;4.502;2023-02-15T05:40:45;89.82;;;46.30;;
37091;SDS011;23005;51.998;4.502;2023-02-15T05:42:08;85.45;;;45.10;;
37091;SDS011;23005;51.998;4.502;2023-02-15T05:43:30;80.80;;;46.53;;
37091;SDS011;23005;51.998;4.502;2023-02-15T05:44:51;88.53;;;45.75;;
37091;SDS011;23005;51.998;4.502;2023-02-15T05:46:12;84.68;;;44.78;;
37091;SDS011;23005;51.998;4.502;2023-02-15T05:47:33;83.88;;;46.25;;
37091;SDS011;23005;51.998;4.502;2023-02-15T05:48:53;84.72;;;45.70;;
37091;SDS011;23005;51.998;4.502;2023-02-15T05:50:14;93.10;;;47.72;;
37091;SDS011;23005;51.998;4.502;2023-02-15T05:51:35;101.43;;;51.63;;
37091;SDS011;23005;51.998;4.502;2023-02-15T05:52:56;91.13;;;48.38;;
37091;SDS011;23005;51.998;4.502;2023-02-15T05:54:17;107.82;;;54.95;;
37091;SDS011;23005;51.998;4.502;2023-02-15T05:55:37;86.28;;;47.35;;
37091;SDS011;23005;51.998;4.502;2023-02-15T05:56:58;97.60;;;49.92;;
37091;SDS011;23005;51.998;4.502;2023-02-15T05:58:19;91.30;;;49.92;;
37091;SDS011;23005;51.998;4.502;2023-02-15T05:59:41;103.68;;;51.22;;
37091;SDS011;23005;51.998;4.502;2023-02-15T06:01:07;107.10;;;53.30;;
37091;SDS011;23005;51.998;4.502;2023-02-15T06:02:29;96.90;;;50.78;;
37091;SDS011;23005;51.998;4.502;2023-02-15T06:03:50;96.90;;;48.33;;
37091;SDS011;23005;51.998;4.502;2023-02-15T06:05:10;98.10;;;50.75;;
37091;SDS011;23005;51.998;4.502;2023-02-15T06:06:31;90.38;;;49.60;;
37091;SDS011;23005;51.998;4.502;2023-02-15T06:07:52;93.43;;;49.47;;
37091;SDS011;23005;51.998;4.502;2023-02-15T06:09:13;97.90;;;51.22;;
37091;SDS011;23005;51.998;4.502;2023-02-15T06:10:33;103.97;;;52.92;;
37091;SDS011;23005;51.998;4.502;2023-02-15T06:11:54;109.65;;;55.50;;
37091;SDS011;23005;51.998;4.502;2023-02-15T06:13:15;92.93;;;49.67;;
37091;SDS011;23005;51.998;4.502;2023-02-15T06:14:36;91.67;;;49.53;;
37091;SDS011;23005;51.998;4.502;2023-02-15T06:15:57;91.68;;;47.83;;
37091;SDS011;23005;51.998;4.502;2023-02-15T06:17:18;100.80;;;52.08;;
37091;SDS011;23005;51.998;4.502;2023-02-15T06:18:39;88.25;;;46.83;;
37091;SDS011;23005;51.998;4.502;2023-02-15T06:20:00;98.47;;;51.78;;
37091;SDS011;23005;51.998;4.502;2023-02-15T06:21:20;93.22;;;47.35;;
37091;SDS011;23005;51.998;4.502;2023-02-15T06:22:41;100.85;;;51.42;;
37091;SDS011;23005;51.998;4.502;2023-02-15T06:24:02;94.45;;;50.92;;
37091;SDS011;23005;51.998;4.502;2023-02-15T06:25:23;94.93;;;49.58;;
37091;SDS011;23005;51.998;4.502;2023-02-15T06:26:44;97.03;;;52.08;;
37091;SDS011;23005;51.998;4.502;2023-02-15T06:28:04;89.68;;;49.55;;
37091;SDS011;23005;51.998;4.502;2023-02-15T06:29:25;89.03;;;47.50;;
37091;SDS011;23005;51.998;4.502;2023-02-15T06:30:46;94.40;;;48.70;;
37091;SDS011;23005;51.998;4.502;2023-02-15T06:32:18;88.20;;;46.65;;
37091;SDS011;23005;51.998;4.502;2023-02-15T06:33:39;95.28;;;50.17;;
37091;SDS011;23005;51.998;4.502;2023-02-15T06:34:59;101.93;;;51.22;;
37091;SDS011;23005;51.998;4.502;2023-02-15T06:36:21;87.47;;;46.17;;
37091;SDS011;23005;51.998;4.502;2023-02-15T06:37:42;99.63;;;52.53;;
37091;SDS011;23005;51.998;4.502;2023-02-15T06:39:05;101.45;;;48.45;;
37091;SDS011;23005;51.998;4.502;2023-02-15T06:40:26;89.57;;;47.38;;
37091;SDS011;23005;51.998;4.502;2023-02-15T06:41:47;84.00;;;45.97;;
37091;SDS011;23005;51.998;4.502;2023-02-15T06:43:09;88.53;;;47.53;;
37091;SDS011;23005;51.998;4.502;2023-02-15T06:44:29;91.50;;;47.38;;
37091;SDS011;23005;51.998;4.502;2023-02-15T06:45:50;86.47;;;47.03;;
37091;SDS011;23005;51.998;4.502;2023-02-15T06:47:11;87.47;;;45.50;;
37091;SDS011;23005;51.998;4.502;2023-02-15T06:48:33;87.15;;;49.20;;
37091;SDS011;23005;51.998;4.502;2023-02-15T06:49:54;96.68;;;51.40;;
37091;SDS011;23005;51.998;4.502;2023-02-15T06:51:14;92.70;;;48.17;;
37091;SDS011;23005;51.998;4.502;2023-02-15T06:52:35;88.18;;;47.92;;
37091;SDS011;23005;51.998;4.502;2023-02-15T06:53:56;81.63;;;45.13;;
37091;SDS011;23005;51.998;4.502;2023-02-15T06:55:16;82.57;;;44.80;;
37091;SDS011;23005;51.998;4.502;2023-02-15T06:56:37;95.53;;;47.53;;
37091;SDS011;23005;51.998;4.502;2023-02-15T06:57:58;89.00;;;47.63;;
37091;SDS011;23005;51.998;4.502;2023-02-15T06:59:19;89.60;;;47.30;;
37091;SDS011;23005;51.998;4.502;2023-02-15T07:00:40;103.65;;;51.97;;
37091;SDS011;23005;51.998;4.502;2023-02-15T07:02:00;96.45;;;50.65;;
37091;SDS011;23005;51.998;4.502;2023-02-15T07:03:21;107.78;;;52.17;;
37091;SDS011;23005;51.998;4.502;2023-02-15T07:04:43;100.28;;;52.75;;
37091;SDS011;23005;51.998;4.502;2023-02-15T07:06:04;97.97;;;51.30;;
37091;SDS011;23005;51.998;4.502;2023-02-15T07:07:25;99.93;;;50.42;;
37091;SDS011;23005;51.998;4.502;2023-02-15T07:08:45;98.28;;;51.55;;
37091;SDS011;23005;51.998;4.502;2023-02-15T07:10:06;100.28;;;53.72;;
37091;SDS011;23005;51.998;4.502;2023-02-15T07:11:27;97.82;;;51.28;;
37091;SDS011;23005;51.998;4.502;2023-02-15T07:12:48;96.68;;;51.83;;
37091;SDS011;23005;51.998;4.502;2023-02-15T07:14:09;97.45;;;53.13;;
37091;SDS011;23005;51.998;4.502;2023-02-15T07:15:30;92.15;;;49.65;;
37091;SDS011;23005;51.998;4.502;2023-02-15T07:16:50;97.13;;;50.55;;
37091;SDS011;23005;51.998;4.502;2023-02-15T07:18:11;99.68;;;50.78;;
37091;SDS011;23005;51.998;4.502;2023-02-15T07:19:32;91.47;;;47.50;;
37091;SDS011;23005;51.998;4.502;2023-02-15T07:20:54;98.30;;;49.72;;
37091;SDS011;23005;51.998;4.502;2023-02-15T07:22:15;107.07;;;53.30;;
37091;SDS011;23005;51.998;4.502;2023-02-15T07:23:36;99.88;;;51.28;;
37091;SDS011;23005;51.998;4.502;2023-02-15T07:24:57;92.68;;;47.03;;
37091;SDS011;23005;51.998;4.502;2023-02-15T07:26:18;101.53;;;52.15;;
37091;SDS011;23005;51.998;4.502;2023-02-15T07:27:38;105.40;;;54.60;;
37091;SDS011;23005;51.998;4.502;2023-02-15T07:29:00;92.13;;;47.63;;
37091;SDS011;23005;51.998;4.502;2023-02-15T07:30:20;101.80;;;54.22;;
37091;SDS011;23005;51.998;4.502;2023-02-15T07:31:41;105.82;;;53.65;;
37091;SDS011;23005;51.998;4.502;2023-02-15T07:33:02;101.88;;;53.35;;
37091;SDS011;23005;51.998;4.502;2023-02-15T07:34:24;105.70;;;52.35;;
37091;SDS011;23005;51.998;4.502;2023-02-15T07:35:48;108.88;;;52.45;;
37091;SDS011;23005;51.998;4.502;2023-02-15T07:37:10;98.50;;;52.05;;
37091;SDS011;23005;51.998;4.502;2023-02-15T07:38:31;106.13;;;54.83;;
37091;SDS011;23005;51.998;4.502;2023-02-15T07:39:53;107.50;;;55.80;;
37091;SDS011;23005;51.998;4.502;2023-02-15T07:41:14;110.45;;;55.40;;
37091;SDS011;23005;51.998;4.502;2023-02-15T07:43:55;121.35;;;58.60;;
37091;SDS011;23005;51.998;4.502;2023-02-15T07:45:16;125.82;;;60.75;;
37091;SDS011;23005;51.998;4.502;2023-02-15T07:46:37;118.53;;;60.05;;
37091;SDS011;23005;51.998;4.502;2023-02-15T07:47:58;119.05;;;59.47;;
37091;SDS011;23005;51.998;4.502;2023-02-15T07:49:20;118.85;;;58.22;;
37091;SDS011;23005;51.998;4.502;2023-02-15T07:50:41;107.30;;;55.42;;
37091;SDS011;23005;51.998;4.502;2023-02-15T07:52:02;126.45;;;61.40;;
37091;SDS011;23005;51.998;4.502;2023-02-15T07:53:24;140.98;;;69.13;;
37091;SDS011;23005;51.998;4.502;2023-02-15T07:54:45;107.05;;;56.13;;
37091;SDS011;23005;51.998;4.502;2023-02-15T07:56:06;130.13;;;63.67;;
37091;SDS011;23005;51.998;4.502;2023-02-15T07:57:28;122.90;;;63.67;;
37091;SDS011;23005;51.998;4.502;2023-02-15T07:58:49;139.88;;;67.03;;
37091;SDS011;23005;51.998;4.502;2023-02-15T08:00:12;121.68;;;62.28;;
37091;SDS011;23005;51.998;4.502;2023-02-15T08:01:34;132.98;;;63.92;;
37091;SDS011;23005;51.998;4.502;2023-02-15T08:02:56;118.82;;;56.80;;
37091;SDS011;23005;51.998;4.502;2023-02-15T08:04:17;126.70;;;60.75;;
37091;SDS011;23005;51.998;4.502;2023-02-15T08:05:38;121.72;;;62.20;;
37091;SDS011;23005;51.998;4.502;2023-02-15T08:06:59;132.57;;;63.83;;
37091;SDS011;23005;51.998;4.502;2023-02-15T08:08:20;106.43;;;55.15;;
37091;SDS011;23005;51.998;4.502;2023-02-15T08:09:42;122.50;;;59.70;;
37091;SDS011;23005;51.998;4.502;2023-02-15T08:11:03;112.90;;;59.60;;